Time;durP1;ratioP1;P1;durP2;ratioP2;P2;SDS_P1;SDS_P2;PMS_P1;PMS_P2;Temp;Humidity;BMP_temperature;BMP_pressure;BME280_temperature;BME280_humidity;BME280_pressure;Samples;Min_cycle;Max_cycle;Signal;HPM_P1;HPM_P2
2021/05/30 00:01:06;;;;;;;2.60;2.40;;;11.20;99.90;;;;;;5072591;28;20490;-74
2021/05/30 00:03:32;;;;;;;2.57;2.20;;;11.20;99.90;;;;;;5072346;28;21049;-74
2021/05/30 00:05:58;;;;;;;2.73;2.53;;;11.20;99.90;;;;;;5072366;28;20531;-74
2021/05/30 00:08:25;;;;;;;2.63;2.43;;;11.10;99.90;;;;;;5071932;28;20447;-75
2021/05/30 00:10:51;;;;;;;2.60;2.40;;;11.10;99.90;;;;;;5072185;28;20952;-74
2021/05/30 00:13:18;;;;;;;3.10;2.50;;;11.10;99.90;;;;;;5072652;28;20448;-74
2021/05/30 00:15:45;;;;;;;3.30;2.80;;;11.00;99.90;;;;;;5072433;28;20439;-75
2021/05/30 00:18:11;;;;;;;3.20;2.93;;;10.90;99.90;;;;;;5072485;28;20479;-74
2021/05/30 00:20:37;;;;;;;3.97;2.97;;;10.90;99.90;;;;;;5072411;28;20475;-74
2021/05/30 00:23:03;;;;;;;2.80;2.23;;;10.90;99.90;;;;;;5072154;28;20989;-74
2021/05/30 00:25:30;;;;;;;3.63;3.20;;;10.90;99.90;;;;;;5072609;28;20475;-74
2021/05/30 00:27:56;;;;;;;3.60;3.30;;;10.90;99.90;;;;;;5072126;28;20943;-74
2021/05/30 00:30:22;;;;;;;2.37;2.27;;;10.90;99.90;;;;;;5072264;28;20483;-74
2021/05/30 00:32:48;;;;;;;3.37;3.17;;;10.90;99.90;;;;;;5072167;28;20439;-74
2021/05/30 00:35:14;;;;;;;3.53;3.23;;;10.80;99.90;;;;;;5072313;28;20535;-74
2021/05/30 00:37:41;;;;;;;4.87;2.90;;;10.80;99.90;;;;;;5072008;28;20486;-74
2021/05/30 00:40:07;;;;;;;3.20;3.00;;;10.70;99.90;;;;;;5072400;28;20475;-75
2021/05/30 00:42:34;;;;;;;3.30;3.10;;;10.70;99.90;;;;;;5071957;28;20474;-74
2021/05/30 00:45:00;;;;;;;3.40;3.20;;;10.70;99.90;;;;;;5072279;28;20443;-74
2021/05/30 00:47:26;;;;;;;3.47;2.93;;;10.60;99.90;;;;;;5072102;28;20535;-74
2021/05/30 00:49:52;;;;;;;4.43;3.13;;;10.60;99.90;;;;;;5071974;28;20554;-74
2021/05/30 00:52:18;;;;;;;2.73;2.53;;;10.60;99.90;;;;;;5071849;28;20919;-74
2021/05/30 00:54:44;;;;;;;2.77;2.57;;;10.50;99.90;;;;;;5073753;28;21021;-74
2021/05/30 00:57:11;;;;;;;4.87;3.37;;;10.60;99.90;;;;;;5076054;28;20530;-74
2021/05/30 00:59:41;;;;;;;3.20;3.00;;;10.60;99.90;;;;;;5076040;28;20453;-74
2021/05/30 01:02:07;;;;;;;2.97;2.70;;;10.50;99.90;;;;;;5075772;28;20969;-74
2021/05/30 01:04:34;;;;;;;4.30;3.40;;;10.50;99.90;;;;;;5075639;28;20560;-74
2021/05/30 01:07:00;;;;;;;2.80;2.60;;;10.40;99.90;;;;;;5074932;28;21063;-75
2021/05/30 01:09:28;;;;;;;3.60;3.30;;;10.40;99.90;;;;;;5075891;28;20799;-76
2021/05/30 01:11:55;;;;;;;2.93;2.73;;;10.40;99.90;;;;;;5075718;28;20486;-75
2021/05/30 01:14:21;;;;;;;3.80;3.40;;;10.40;99.90;;;;;;5075729;28;20443;-75
2021/05/30 01:16:49;;;;;;;4.23;3.73;;;10.30;99.90;;;;;;5075433;28;20483;-75
2021/05/30 01:19:17;;;;;;;4.00;3.00;;;10.30;99.90;;;;;;5075519;28;20537;-75
2021/05/30 01:21:44;;;;;;;3.33;2.97;;;10.20;99.90;;;;;;5075671;28;20475;-75
2021/05/30 01:24:13;;;;;;;3.50;3.20;;;10.20;99.90;;;;;;5075497;28;20938;-75
2021/05/30 01:26:40;;;;;;;4.33;3.43;;;10.30;99.90;;;;;;5075536;28;20447;-76
2021/05/30 01:29:06;;;;;;;5.60;3.73;;;10.20;99.90;;;;;;5075368;28;20812;-75
2021/05/30 01:31:32;;;;;;;3.97;3.60;;;10.20;99.90;;;;;;5075397;28;20481;-75
2021/05/30 01:33:58;;;;;;;4.70;3.53;;;10.20;99.90;;;;;;5075147;28;20873;-75
2021/05/30 01:36:25;;;;;;;3.90;3.60;;;10.10;99.90;;;;;;5075486;28;20444;-75
2021/05/30 01:38:51;;;;;;;3.90;3.60;;;10.10;99.90;;;;;;5075261;28;20481;-75
2021/05/30 01:41:17;;;;;;;4.80;3.90;;;10.10;99.90;;;;;;5075346;28;20512;-75
2021/05/30 01:43:44;;;;;;;3.50;3.20;;;10.00;99.90;;;;;;5075170;28;20454;-74
2021/05/30 01:46:10;;;;;;;4.37;3.60;;;10.10;99.90;;;;;;5075332;28;20478;-74
2021/05/30 01:48:36;;;;;;;4.00;3.60;;;10.10;99.90;;;;;;5074932;28;20471;-75
2021/05/30 01:51:02;;;;;;;4.80;3.80;;;10.10;99.90;;;;;;5075031;28;20608;-75
2021/05/30 01:53:34;;;;;;;4.40;3.77;;;10.00;99.90;;;;;;5074981;28;20475;-75
2021/05/30 01:58:46;;;;;;;4.93;4.30;;;9.90;99.90;;;;;;5074666;28;20438;-76
2021/05/30 02:01:13;;;;;;;4.03;3.63;;;9.90;99.90;;;;;;5074869;28;20487;-75
2021/05/30 02:03:42;;;;;;;5.23;4.00;;;9.90;99.90;;;;;;5074477;28;20478;-75
2021/05/30 02:06:08;;;;;;;4.40;4.00;;;9.90;99.90;;;;;;5073907;28;20482;-75
2021/05/30 02:08:38;;;;;;;9.10;4.60;;;9.90;99.90;;;;;;5073959;28;20482;-75
2021/05/30 02:11:08;;;;;;;3.90;3.50;;;9.90;99.90;;;;;;5074478;28;21069;-75
2021/05/30 02:13:34;;;;;;;4.03;3.70;;;9.80;99.90;;;;;;5074528;28;20547;-75
2021/05/30 02:16:02;;;;;;;3.80;3.50;;;9.80;99.90;;;;;;5074504;28;20965;-75
2021/05/30 02:18:28;;;;;;;6.80;3.93;;;9.80;99.90;;;;;;5074501;28;20605;-75
2021/05/30 02:20:54;;;;;;;4.70;4.37;;;9.80;99.90;;;;;;5074553;28;20471;-75
2021/05/30 02:23:20;;;;;;;3.83;3.50;;;9.80;99.90;;;;;;5074345;28;20997;-74
2021/05/30 02:25:46;;;;;;;3.93;3.50;;;9.80;99.90;;;;;;5074366;28;20482;-75
2021/05/30 02:28:13;;;;;;;4.07;3.70;;;9.70;99.90;;;;;;5074036;28;20475;-75
2021/05/30 02:30:39;;;;;;;4.20;3.90;;;9.70;99.90;;;;;;5074221;28;20574;-75
2021/05/30 02:33:06;;;;;;;3.90;3.60;;;9.60;99.90;;;;;;5074181;28;20451;-74
2021/05/30 02:35:32;;;;;;;4.33;3.93;;;9.60;99.90;;;;;;5074354;28;20471;-74
2021/05/30 02:37:58;;;;;;;5.03;4.00;;;9.60;99.90;;;;;;5074027;28;20443;-74
2021/05/30 02:40:24;;;;;;;5.43;4.30;;;9.60;99.90;;;;;;5074022;28;20530;-76
2021/05/30 02:42:51;;;;;;;3.93;3.50;;;9.50;99.90;;;;;;5073835;28;20471;-74
2021/05/30 02:45:17;;;;;;;4.60;3.33;;;9.50;99.90;;;;;;5074025;28;20450;-74
2021/05/30 02:47:43;;;;;;;3.40;3.10;;;9.50;99.90;;;;;;5073942;28;20475;-75
2021/05/30 02:50:11;;;;;;;3.63;3.23;;;9.50;99.90;;;;;;5073892;28;20471;-75
2021/05/30 02:52:37;;;;;;;4.57;3.13;;;9.60;99.90;;;;;;5073722;28;20451;-75
2021/05/30 02:55:04;;;;;;;3.70;3.40;;;9.60;99.90;;;;;;5073627;28;20479;-75
2021/05/30 02:57:30;;;;;;;3.20;3.00;;;9.60;99.90;;;;;;5073689;28;20467;-75
2021/05/30 02:59:56;;;;;;;5.37;3.53;;;9.60;99.90;;;;;;5073917;28;20486;-75
2021/05/30 03:02:22;;;;;;;5.47;3.60;;;9.60;99.90;;;;;;5073775;28;20446;-75
2021/05/30 03:04:48;;;;;;;8.97;3.90;;;9.50;99.90;;;;;;5073436;28;20499;-75
2021/05/30 03:07:15;;;;;;;5.93;3.40;;;9.50;99.90;;;;;;5073029;28;20532;-75
2021/05/30 03:09:41;;;;;;;3.60;3.40;;;9.50;99.90;;;;;;5073062;28;20463;-75
2021/05/30 03:12:08;;;;;;;4.30;2.73;;;9.50;99.90;;;;;;5073693;28;20502;-75
2021/05/30 03:14:34;;;;;;;4.47;4.07;;;9.50;99.90;;;;;;5073224;28;20532;-75
2021/05/30 03:17:00;;;;;;;6.47;3.13;;;9.60;99.90;;;;;;5073272;28;20486;-74
2021/05/30 03:19:26;;;;;;;3.73;3.43;;;9.70;99.90;;;;;;5073286;28;21200;-75
2021/05/30 03:21:52;;;;;;;4.03;2.97;;;9.70;99.90;;;;;;5073254;28;20451;-75
2021/05/30 03:24:18;;;;;;;6.87;3.37;;;9.70;99.90;;;;;;5073132;28;20483;-75
2021/05/30 03:26:45;;;;;;;3.50;3.20;;;9.70;99.90;;;;;;5076998;28;20475;-76
2021/05/30 03:29:11;;;;;;;3.30;3.00;;;9.70;99.90;;;;;;5073235;28;20584;-75
2021/05/30 03:31:37;;;;;;;4.57;3.27;;;9.70;99.90;;;;;;5073147;28;20551;-74
2021/05/30 03:34:03;;;;;;;3.37;3.13;;;9.80;99.90;;;;;;5073151;28;21017;-75
2021/05/30 03:36:30;;;;;;;2.93;2.70;;;9.80;99.90;;;;;;5072936;28;20478;-75
2021/05/30 03:39:01;;;;;;;3.17;2.83;;;9.70;99.90;;;;;;5072764;28;20530;-75
2021/05/30 03:41:33;;;;;;;4.00;3.60;;;9.80;99.90;;;;;;5073094;28;20688;-75
2021/05/30 03:43:59;;;;;;;4.07;3.30;;;9.80;99.90;;;;;;5072909;28;20425;-74
2021/05/30 03:46:25;;;;;;;3.70;3.40;;;9.90;99.90;;;;;;5072828;28;20482;-75
2021/05/30 03:48:51;;;;;;;5.10;3.07;;;9.90;99.90;;;;;;5072662;28;20455;-74
2021/05/30 03:51:17;;;;;;;4.67;3.87;;;9.90;99.90;;;;;;5072532;28;20532;-75
2021/05/30 03:53:43;;;;;;;4.33;3.93;;;9.90;99.90;;;;;;5072883;28;20787;-74
2021/05/30 03:56:09;;;;;;;3.23;2.60;;;10.00;99.90;;;;;;5072803;28;20455;-75
2021/05/30 03:58:36;;;;;;;3.60;3.30;;;10.00;99.90;;;;;;5072819;28;20475;-74
2021/05/30 04:01:02;;;;;;;4.90;3.67;;;10.10;99.90;;;;;;5072636;28;20462;-75
2021/05/30 04:03:28;;;;;;;3.43;3.23;;;10.10;99.90;;;;;;5072446;28;20956;-74
2021/05/30 04:05:54;;;;;;;7.63;4.20;;;10.20;99.90;;;;;;5072603;28;20815;-75
2021/05/30 04:08:20;;;;;;;3.53;3.23;;;10.20;99.90;;;;;;5071937;28;20491;-75
2021/05/30 04:10:46;;;;;;;5.80;3.00;;;10.30;99.90;;;;;;5072328;28;20475;-75
2021/05/30 04:13:13;;;;;;;3.57;3.27;;;10.30;99.90;;;;;;5072483;28;20573;-74
2021/05/30 04:15:39;;;;;;;3.30;2.83;;;10.40;99.90;;;;;;5072479;28;20535;-74
2021/05/30 04:18:05;;;;;;;3.40;3.20;;;10.40;99.90;;;;;;5072517;28;20567;-75
2021/05/30 04:20:31;;;;;;;3.83;3.50;;;10.40;99.90;;;;;;5072316;28;20448;-75
2021/05/30 04:22:58;;;;;;;3.13;2.67;;;10.50;99.90;;;;;;5072459;28;20539;-75
2021/05/30 04:25:24;;;;;;;2.90;2.70;;;10.50;99.90;;;;;;5072531;28;20482;-75
2021/05/30 04:27:50;;;;;;;3.67;3.17;;;10.50;99.90;;;;;;5072205;28;20611;-75
2021/05/30 04:30:17;;;;;;;3.70;3.40;;;10.50;99.90;;;;;;5071781;28;20893;-75
2021/05/30 04:32:44;;;;;;;3.80;3.20;;;10.60;99.90;;;;;;5072026;28;20525;-75
2021/05/30 04:35:11;;;;;;;3.00;2.80;;;10.60;99.90;;;;;;5072325;28;20538;-75
2021/05/30 04:37:37;;;;;;;3.83;3.50;;;10.60;99.90;;;;;;5072238;28;20505;-75
2021/05/30 04:40:05;;;;;;;3.57;3.37;;;10.70;99.90;;;;;;5072466;28;20581;-75
2021/05/30 04:42:32;;;;;;;4.00;3.70;;;10.80;99.90;;;;;;5072140;28;20551;-75
2021/05/30 04:44:58;;;;;;;2.67;2.47;;;10.80;99.90;;;;;;5072164;28;20451;-74
2021/05/30 04:47:25;;;;;;;3.40;3.07;;;10.90;99.90;;;;;;5072122;28;20530;-75
2021/05/30 04:49:52;;;;;;;4.07;2.70;;;11.00;99.90;;;;;;5071994;28;20468;-75
2021/05/30 04:52:18;;;;;;;4.10;3.20;;;11.10;99.90;;;;;;5072161;28;20478;-75
2021/05/30 04:54:44;;;;;;;4.20;3.30;;;11.20;99.90;;;;;;5072132;28;20455;-74
2021/05/30 04:57:11;;;;;;;2.93;2.73;;;11.30;99.90;;;;;;5072068;28;20531;-75
2021/05/30 04:59:37;;;;;;;4.33;2.90;;;11.40;99.90;;;;;;5072026;28;20440;-75
2021/05/30 05:02:04;;;;;;;3.27;2.87;;;11.50;99.90;;;;;;5071916;28;20458;-74
2021/05/30 05:04:30;;;;;;;3.33;2.80;;;11.50;99.90;;;;;;5071678;28;20882;-75
2021/05/30 05:06:57;;;;;;;3.80;3.27;;;11.60;99.90;;;;;;5071346;28;20483;-75
2021/05/30 05:09:23;;;;;;;3.03;2.83;;;11.60;99.90;;;;;;5072029;28;20538;-75
2021/05/30 05:11:49;;;;;;;5.70;2.90;;;11.60;99.90;;;;;;5071839;28;20800;-75
2021/05/30 05:14:15;;;;;;;5.60;2.53;;;11.60;99.90;;;;;;5071789;28;20547;-75
2021/05/30 05:16:41;;;;;;;3.23;2.93;;;11.60;99.90;;;;;;5071910;28;20491;-75
2021/05/30 05:19:07;;;;;;;2.53;2.33;;;11.70;99.90;;;;;;5071794;28;20776;-75
2021/05/30 05:21:33;;;;;;;4.07;2.93;;;11.90;99.90;;;;;;5072053;28;20808;-74
2021/05/30 05:24:00;;;;;;;2.23;2.10;;;11.90;99.90;;;;;;5071612;28;21033;-74
2021/05/30 05:26:26;;;;;;;2.33;2.13;;;12.00;99.90;;;;;;5071743;28;20534;-74
2021/05/30 05:28:53;;;;;;;4.50;3.10;;;12.00;99.90;;;;;;5071556;28;20471;-74
2021/05/30 05:31:19;;;;;;;2.80;2.30;;;12.10;99.90;;;;;;5071543;28;20479;-75
2021/05/30 05:33:45;;;;;;;2.60;2.40;;;12.10;99.90;;;;;;5071685;28;20493;-75
2021/05/30 05:36:12;;;;;;;4.10;2.50;;;12.30;99.90;;;;;;5071918;28;20538;-75
2021/05/30 05:38:38;;;;;;;2.60;2.33;;;12.40;99.90;;;;;;5071535;28;20444;-75
2021/05/30 05:41:05;;;;;;;3.73;2.37;;;12.50;99.90;;;;;;5072415;28;20485;-75
2021/05/30 05:43:31;;;;;;;3.43;2.67;;;12.60;99.90;;;;;;5075174;28;20465;-75
2021/05/30 05:45:57;;;;;;;2.60;2.40;;;12.70;99.90;;;;;;5074955;28;20512;-75
2021/05/30 05:48:23;;;;;;;2.30;2.10;;;12.90;99.90;;;;;;5074931;28;20530;-75
2021/05/30 05:50:49;;;;;;;3.10;2.63;;;13.10;99.90;;;;;;5075074;28;20475;-75
2021/05/30 05:53:16;;;;;;;3.30;3.00;;;13.30;99.90;;;;;;5075002;28;20535;-75
2021/05/30 05:55:43;;;;;;;5.37;2.40;;;13.50;99.90;;;;;;5074977;28;20478;-75
2021/05/30 05:58:10;;;;;;;2.60;2.23;;;13.90;99.90;;;;;;5074906;28;20482;-75
2021/05/30 06:00:37;;;;;;;3.00;2.17;;;14.40;99.90;;;;;;5074777;28;20479;-75
2021/05/30 06:03:04;;;;;;;3.03;2.70;;;14.60;99.90;;;;;;5074661;28;20547;-75
2021/05/30 06:05:30;;;;;;;3.00;2.67;;;15.00;99.90;;;;;;5074940;28;20484;-75
2021/05/30 06:07:57;;;;;;;2.90;2.50;;;14.90;99.90;;;;;;5074113;28;20825;-75
2021/05/30 06:10:27;;;;;;;2.63;2.23;;;15.30;99.90;;;;;;5074637;28;20685;-75
2021/05/30 06:12:57;;;;;;;2.60;2.40;;;15.40;99.90;;;;;;5074542;28;20494;-75
2021/05/30 06:15:27;;;;;;;2.33;2.03;;;15.40;99.90;;;;;;5074872;28;20447;-75
2021/05/30 06:17:57;;;;;;;3.30;2.33;;;15.60;99.90;;;;;;5074614;28;20471;-75
2021/05/30 06:20:25;;;;;;;5.00;2.33;;;15.80;99.90;;;;;;5074664;28;20772;-75
2021/05/30 06:22:51;;;;;;;3.93;2.97;;;15.80;99.90;;;;;;5074272;28;20454;-75
2021/05/30 06:25:17;;;;;;;2.97;2.33;;;15.90;99.90;;;;;;5074532;28;20471;-75
2021/05/30 06:27:44;;;;;;;2.17;1.90;;;16.20;99.90;;;;;;5074142;28;20950;-75
2021/05/30 06:30:12;;;;;;;2.70;1.97;;;16.70;99.90;;;;;;5074371;28;20514;-75
2021/05/30 06:32:39;;;;;;;2.50;2.30;;;16.60;99.90;;;;;;5074321;28;20531;-75
2021/05/30 06:35:06;;;;;;;2.10;2.00;;;16.70;99.90;;;;;;5074128;28;20451;-75
2021/05/30 06:37:32;;;;;;;2.03;1.83;;;16.90;99.90;;;;;;5074234;28;20534;-75
2021/05/30 06:39:58;;;;;;;3.43;2.10;;;17.00;99.90;;;;;;5074191;28;20460;-75
2021/05/30 06:42:24;;;;;;;3.40;1.63;;;16.80;99.90;;;;;;5074038;28;21013;-75
2021/05/30 06:44:50;;;;;;;1.90;1.80;;;16.90;99.90;;;;;;5073852;28;20447;-75
2021/05/30 06:47:16;;;;;;;1.73;1.63;;;17.20;99.90;;;;;;5073866;28;20538;-75
2021/05/30 06:49:43;;;;;;;2.20;1.97;;;17.40;99.90;;;;;;5073710;28;20834;-75
2021/05/30 06:52:09;;;;;;;3.17;1.87;;;17.40;99.90;;;;;;5073502;28;20929;-75
2021/05/30 06:54:36;;;;;;;3.00;2.17;;;17.40;99.90;;;;;;5073746;28;20471;-76
2021/05/30 06:57:02;;;;;;;3.43;2.17;;;17.20;99.90;;;;;;5073506;28;20482;-75
2021/05/30 06:59:28;;;;;;;1.70;1.60;;;17.40;99.90;;;;;;5073619;28;20517;-75
2021/05/30 07:01:54;;;;;;;2.27;2.10;;;17.60;99.90;;;;;;5073722;28;20491;-75
2021/05/30 07:04:22;;;;;;;3.73;2.40;;;17.60;99.90;;;;;;5073393;28;20507;-75
2021/05/30 07:06:49;;;;;;;2.33;1.97;;;17.60;99.90;;;;;;5057328;28;20947;-75
2021/05/30 07:09:15;;;;;;;4.30;2.50;;;17.70;99.90;;;;;;5073438;28;20539;-75
2021/05/30 07:11:41;;;;;;;3.27;2.97;;;18.00;99.90;;;;;;5073122;28;21052;-75
2021/05/30 07:14:07;;;;;;;2.53;2.20;;;18.40;99.90;;;;;;5073499;28;20490;-75
2021/05/30 07:16:33;;;;;;;3.50;2.57;;;18.80;99.90;;;;;;5073387;28;20538;-75
2021/05/30 07:18:59;;;;;;;2.50;1.97;;;19.10;99.90;;;;;;5073269;28;20532;-74
2021/05/30 07:21:27;;;;;;;3.00;2.00;;;19.20;99.90;;;;;;5073385;28;20534;-75
2021/05/30 07:23:54;;;;;;;4.20;2.10;;;19.00;99.90;;;;;;5073185;28;20570;-75
2021/05/30 07:26:20;;;;;;;4.90;2.10;;;19.00;99.90;;;;;;5073137;28;20439;-75
2021/05/30 07:28:46;;;;;;;4.00;1.70;;;18.70;99.90;;;;;;5065873;28;20531;-75
2021/05/30 07:31:13;;;;;;;2.13;1.57;;;18.60;99.90;;;;;;5071941;28;20486;-75
2021/05/30 07:33:39;;;;;;;1.90;1.80;;;18.80;99.90;;;;;;5072399;28;20522;-76
2021/05/30 07:36:06;;;;;;;2.40;1.70;;;18.80;99.90;;;;;;5072406;28;20450;-84
2021/05/30 07:38:33;;;;;;;2.20;1.87;;;18.90;99.90;;;;;;5072436;28;20475;-84
2021/05/30 07:41:00;;;;;;;2.33;2.13;;;18.70;99.90;;;;;;5072507;28;20534;-81
2021/05/30 07:43:27;;;;;;;3.00;1.83;;;18.60;99.90;;;;;;5073074;28;20471;-84
2021/05/30 07:45:53;;;;;;;2.13;1.93;;;18.90;99.90;;;;;;5071625;28;20536;-85
2021/05/30 07:48:19;;;;;;;1.93;1.73;;;19.10;98.50;;;;;;5072024;28;20881;-84
2021/05/30 07:50:46;;;;;;;1.93;1.77;;;19.10;98.70;;;;;;5070517;28;20566;-82
2021/05/30 07:53:12;;;;;;;2.60;2.40;;;18.90;98.70;;;;;;5072031;28;20455;-82
2021/05/30 07:55:39;;;;;;;1.90;1.43;;;18.90;99.10;;;;;;5071623;28;21011;-81
2021/05/30 07:58:07;;;;;;;4.60;2.20;;;19.00;98.20;;;;;;5072449;28;20877;-82
2021/05/30 08:00:34;;;;;;;2.40;1.97;;;18.50;98.40;;;;;;5070600;28;20456;-82
2021/05/30 08:03:00;;;;;;;1.80;1.70;;;18.60;99.70;;;;;;5071891;28;20454;-81
2021/05/30 08:05:26;;;;;;;2.90;1.67;;;18.50;98.50;;;;;;5071309;28;20526;-80
2021/05/30 08:07:52;;;;;;;1.93;1.50;;;18.40;98.30;;;;;;5070177;28;20874;-81
2021/05/30 08:10:20;;;;;;;1.60;1.27;;;18.70;98.20;;;;;;5070572;28;20499;-82
2021/05/30 08:12:47;;;;;;;5.30;1.80;;;18.70;96.00;;;;;;5055050;28;20939;-81
2021/05/30 08:15:14;;;;;;;1.97;1.67;;;18.50;95.10;;;;;;5072479;28;20471;-84
2021/05/30 08:17:41;;;;;;;2.30;1.50;;;18.50;94.50;;;;;;5072466;28;20475;-83
2021/05/30 08:20:10;;;;;;;3.43;1.93;;;18.50;94.50;;;;;;5072307;28;20448;-82
2021/05/30 08:22:36;;;;;;;1.83;1.50;;;18.40;93.90;;;;;;5072354;28;20984;-81
2021/05/30 08:25:03;;;;;;;2.67;1.70;;;18.10;94.30;;;;;;5072443;28;20479;-82
2021/05/30 08:27:29;;;;;;;2.03;1.40;;;18.10;93.80;;;;;;5072208;28;20471;-82
2021/05/30 08:29:55;;;;;;;1.90;1.33;;;18.20;93.50;;;;;;5071206;28;20505;-82
2021/05/30 08:32:22;;;;;;;1.43;1.10;;;18.10;92.60;;;;;;5071859;28;20471;-82
2021/05/30 08:34:48;;;;;;;1.53;1.20;;;17.90;92.20;;;;;;5068916;28;20447;-82
2021/05/30 08:37:17;;;;;;;2.13;1.67;;;17.80;92.60;;;;;;5072487;28;20479;-82
2021/05/30 08:39:44;;;;;;;1.60;1.47;;;17.70;92.50;;;;;;5072209;28;20451;-82
2021/05/30 08:42:10;;;;;;;3.93;1.67;;;17.70;93.10;;;;;;5072373;28;20543;-82
2021/05/30 08:44:36;;;;;;;3.20;2.50;;;17.80;93.50;;;;;;5071782;28;20850;-82
2021/05/30 08:47:02;;;;;;;2.07;1.93;;;17.90;92.80;;;;;;5071232;28;20481;-83
2021/05/30 08:49:29;;;;;;;3.60;1.40;;;17.90;93.50;;;;;;5070136;28;20875;-82
2021/05/30 08:51:55;;;;;;;2.53;1.63;;;17.90;94.00;;;;;;5070553;28;20570;-82
2021/05/30 08:54:21;;;;;;;1.87;1.20;;;17.90;93.70;;;;;;5071700;28;20452;-83
2021/05/30 08:56:48;;;;;;;2.80;1.23;;;17.80;92.90;;;;;;5071972;28;20483;-82
2021/05/30 08:59:18;;;;;;;2.47;1.70;;;17.70;93.10;;;;;;5072102;28;20494;-82
2021/05/30 09:01:45;;;;;;;4.00;1.37;;;17.70;93.20;;;;;;5071958;28;20470;-82
2021/05/30 09:04:12;;;;;;;1.57;1.40;;;17.60;92.50;;;;;;5071352;28;20514;-83
2021/05/30 09:06:41;;;;;;;2.27;1.40;;;17.40;92.50;;;;;;5071023;28;20491;-82
2021/05/30 09:09:09;;;;;;;4.20;1.70;;;17.40;92.20;;;;;;5071952;28;20534;-83
2021/05/30 09:11:53;;;;;;;2.13;1.37;;;17.40;93.00;;;;;;5071916;28;20514;-83
2021/05/30 09:14:23;;;;;;;4.60;1.67;;;17.40;93.10;;;;;;5071856;28;20471;-82
2021/05/30 09:17:00;;;;;;;2.33;1.30;;;17.40;94.30;;;;;;5059414;28;20814;-81
2021/05/30 09:19:38;;;;;;;3.17;1.60;;;17.40;93.90;;;;;;5076004;28;20961;-82
2021/05/30 09:22:33;;;;;;;2.33;1.50;;;17.30;94.40;;;;;;5075787;28;20505;-81
2021/05/30 09:25:23;;;;;;;1.53;1.43;;;17.40;93.00;;;;;;5047769;28;20568;-82
2021/05/30 09:27:59;;;;;;;2.37;1.77;;;17.30;93.90;;;;;;5075102;28;20525;-82
2021/05/30 09:30:28;;;;;;;2.03;1.80;;;17.40;94.10;;;;;;5075054;28;20485;-82
2021/05/30 09:33:05;;;;;;;4.43;1.50;;;17.50;94.60;;;;;;5075037;28;20920;-83
2021/05/30 09:35:45;;;;;;;1.70;1.60;;;17.50;94.30;;;;;;5075546;28;20546;-83
2021/05/30 09:38:14;;;;;;;3.63;1.60;;;17.40;94.60;;;;;;5075315;28;20530;-83
2021/05/30 09:40:42;;;;;;;1.70;1.50;;;17.40;94.30;;;;;;5073518;28;20475;-82
2021/05/30 09:43:10;;;;;;;3.90;1.70;;;17.40;94.80;;;;;;5073658;28;20443;-83
2021/05/30 09:45:37;;;;;;;4.90;1.60;;;17.50;95.10;;;;;;5074108;28;21002;-83
2021/05/30 09:48:13;;;;;;;1.40;1.30;;;17.60;94.90;;;;;;5074924;28;20807;-83
2021/05/30 09:50:39;;;;;;;2.90;1.70;;;17.50;95.20;;;;;;5074652;28;20501;-84
2021/05/30 09:53:07;;;;;;;1.50;1.40;;;17.40;95.20;;;;;;5074676;28;20542;-81
2021/05/30 09:55:34;;;;;;;6.73;4.80;;;17.50;95.50;;;;;;5074547;28;20451;-81
2021/05/30 09:58:14;;;;;;;4.27;1.60;;;17.50;95.30;;;;;;5074601;28;20467;-84
2021/05/30 10:00:42;;;;;;;3.20;1.97;;;17.50;94.90;;;;;;5074956;28;20478;-85
2021/05/30 10:03:09;;;;;;;2.63;1.50;;;17.50;94.80;;;;;;5074928;28;20788;-84
2021/05/30 10:05:36;;;;;;;2.40;1.60;;;17.50;95.60;;;;;;5075117;28;20475;-84
2021/05/30 10:08:02;;;;;;;2.40;1.90;;;17.50;95.20;;;;;;5074445;28;20530;-85
2021/05/30 10:10:30;;;;;;;1.67;1.50;;;17.60;95.40;;;;;;5074057;28;20583;-84
2021/05/30 10:12:57;;;;;;;5.63;2.23;;;17.60;95.40;;;;;;5074078;28;20534;-84
2021/05/30 10:15:23;;;;;;;4.23;1.67;;;17.60;95.50;;;;;;5074298;28;20531;-84
2021/05/30 10:17:52;;;;;;;2.83;1.87;;;17.60;95.50;;;;;;5074210;28;20555;-84
2021/05/30 10:20:23;;;;;;;4.13;2.23;;;17.50;95.40;;;;;;5074314;28;20792;-81
2021/05/30 10:22:51;;;;;;;3.33;1.70;;;17.50;95.80;;;;;;5058505;28;20542;-83
2021/05/30 10:25:25;;;;;;;2.27;1.83;;;17.60;95.20;;;;;;5074491;28;20452;-83
2021/05/30 10:28:12;;;;;;;3.00;1.73;;;17.60;96.10;;;;;;5073652;28;20870;-83
2021/05/30 10:30:39;;;;;;;2.53;1.60;;;17.60;96.00;;;;;;5074239;28;20524;-83
2021/05/30 10:33:14;;;;;;;2.17;1.80;;;17.70;96.40;;;;;;5074153;28;21005;-83
2021/05/30 10:35:42;;;;;;;2.17;1.97;;;17.80;97.10;;;;;;5070458;28;20483;-83
2021/05/30 10:38:09;;;;;;;1.77;1.67;;;18.00;95.90;;;;;;5074098;28;20466;-80
2021/05/30 10:40:38;;;;;;;3.10;1.80;;;18.00;95.10;;;;;;5072231;28;20534;-81
2021/05/30 10:43:22;;;;;;;4.70;2.17;;;18.00;95.70;;;;;;5074037;28;20534;-83
2021/05/30 10:46:00;;;;;;;2.40;1.60;;;18.10;95.30;;;;;;5072564;28;20881;-79
2021/05/30 10:48:26;;;;;;;4.30;2.07;;;18.10;94.50;;;;;;5071638;28;20891;-80
2021/05/30 10:51:09;;;;;;;2.03;1.90;;;18.10;94.80;;;;;;5073406;28;20471;-79
2021/05/30 10:53:41;;;;;;;5.07;1.80;;;18.10;94.80;;;;;;5072892;28;21083;-79
2021/05/30 10:56:16;;;;;;;1.97;1.57;;;18.00;94.50;;;;;;5071553;28;20479;-79
2021/05/30 10:58:43;;;;;;;3.00;2.13;;;18.00;94.60;;;;;;5072633;28;20443;-79
2021/05/30 11:01:39;;;;;;;2.00;1.80;;;18.00;94.20;;;;;;5073684;28;20451;-79
2021/05/30 11:04:38;;;;;;;2.67;2.13;;;18.00;94.40;;;;;;5073840;28;20483;-79
2021/05/30 11:07:30;;;;;;;3.43;1.80;;;18.10;94.00;;;;;;5073610;28;20475;-79
2021/05/30 11:10:02;;;;;;;1.87;1.77;;;18.10;94.40;;;;;;5073804;28;20855;-79
2021/05/30 11:12:30;;;;;;;2.47;1.63;;;18.20;93.80;;;;;;5073838;28;20988;-79
2021/05/30 11:15:19;;;;;;;2.73;1.70;;;18.30;94.40;;;;;;5073727;28;20447;-79
2021/05/30 11:17:46;;;;;;;2.00;1.80;;;18.40;92.90;;;;;;5073935;28;20479;-79
2021/05/30 11:20:14;;;;;;;4.40;1.80;;;18.30;92.90;;;;;;5073945;28;20525;-79
2021/05/30 11:22:41;;;;;;;4.10;3.10;;;18.40;93.70;;;;;;5073781;28;20448;-79
2021/05/30 11:25:08;;;;;;;4.20;1.80;;;18.30;93.90;;;;;;5073749;28;20501;-79
2021/05/30 11:27:51;;;;;;;3.40;1.53;;;18.30;93.70;;;;;;5073568;28;20495;-79
2021/05/30 11:30:40;;;;;;;3.20;1.90;;;18.40;94.20;;;;;;5073756;28;20530;-79
2021/05/30 11:33:07;;;;;;;2.23;1.50;;;18.50;94.50;;;;;;5073659;28;20873;-79
2021/05/30 11:35:35;;;;;;;3.60;2.50;;;18.60;94.60;;;;;;5073604;28;20487;-79
2021/05/30 11:38:02;;;;;;;2.37;1.97;;;18.70;93.40;;;;;;5073836;28;20454;-79
2021/05/30 11:40:28;;;;;;;3.70;2.00;;;18.70;93.60;;;;;;5073649;28;21128;-79
2021/05/30 11:42:55;;;;;;;1.83;1.60;;;18.50;93.60;;;;;;5073287;28;20452;-79
2021/05/30 11:45:36;;;;;;;2.80;1.90;;;18.50;93.70;;;;;;5073562;28;20524;-79
2021/05/30 11:48:05;;;;;;;3.13;2.80;;;18.50;94.10;;;;;;5072187;28;20494;-79
2021/05/30 11:50:33;;;;;;;3.27;1.83;;;18.60;94.10;;;;;;5071485;28;20476;-79
2021/05/30 11:52:59;;;;;;;3.30;2.00;;;18.80;94.20;;;;;;5072382;28;20501;-79
2021/05/30 11:55:25;;;;;;;3.00;1.87;;;18.80;93.80;;;;;;5073372;28;20451;-79
2021/05/30 11:57:51;;;;;;;1.93;1.77;;;18.90;93.60;;;;;;5073093;28;20486;-79
2021/05/30 12:00:18;;;;;;;7.20;2.60;;;19.10;93.10;;;;;;5073148;28;20482;-79
2021/05/30 12:02:45;;;;;;;2.33;2.13;;;19.00;91.80;;;;;;5073255;28;20443;-79
2021/05/30 12:05:14;;;;;;;3.10;2.57;;;19.00;92.40;;;;;;5072872;28;21009;-79
2021/05/30 12:07:40;;;;;;;3.57;1.67;;;19.20;92.70;;;;;;5072986;28;20459;-79
2021/05/30 12:10:10;;;;;;;2.23;1.87;;;19.40;92.80;;;;;;5073162;28;20446;-79
2021/05/30 12:12:37;;;;;;;3.30;2.20;;;19.40;93.00;;;;;;5073342;28;20455;-79
2021/05/30 12:15:09;;;;;;;2.27;2.10;;;19.40;92.60;;;;;;5073032;28;20550;-79
2021/05/30 12:17:36;;;;;;;2.70;1.90;;;19.10;92.00;;;;;;5072922;28;20443;-79
2021/05/30 12:20:04;;;;;;;2.27;1.70;;;18.90;91.90;;;;;;5073376;28;20470;-79
2021/05/30 12:22:32;;;;;;;3.50;1.83;;;18.80;91.90;;;;;;5073022;28;20910;-79
2021/05/30 12:24:59;;;;;;;3.43;2.10;;;18.80;92.70;;;;;;5072900;28;21026;-79
2021/05/30 12:27:26;;;;;;;5.13;2.20;;;18.80;92.20;;;;;;5072699;28;20479;-79
2021/05/30 12:29:53;;;;;;;2.73;1.90;;;18.90;91.60;;;;;;5072844;28;20482;-79
2021/05/30 12:32:21;;;;;;;6.53;4.60;;;18.90;92.60;;;;;;5072543;28;20689;-79
2021/05/30 12:34:49;;;;;;;5.00;3.10;;;19.10;92.40;;;;;;5072883;28;20483;-79
2021/05/30 12:37:16;;;;;;;2.10;1.90;;;19.30;92.30;;;;;;5072824;28;20481;-80
2021/05/30 12:39:43;;;;;;;2.73;1.90;;;19.40;91.20;;;;;;5072768;28;20447;-79
2021/05/30 12:42:12;;;;;;;1.60;1.50;;;19.30;91.20;;;;;;5072636;28;20558;-79
2021/05/30 12:44:41;;;;;;;2.33;1.90;;;19.20;91.30;;;;;;5072627;28;20479;-79
2021/05/30 12:47:11;;;;;;;2.40;2.30;;;19.20;91.40;;;;;;5072990;28;20451;-79
2021/05/30 12:49:38;;;;;;;2.10;1.90;;;19.20;91.20;;;;;;5072883;28;20512;-79
2021/05/30 12:52:06;;;;;;;3.00;1.60;;;19.40;91.70;;;;;;5076798;28;20482;-79
2021/05/30 12:54:34;;;;;;;2.00;1.80;;;19.70;91.90;;;;;;5076613;28;20465;-80